createdAt,value
2022-09-07T00:03:36.979Z,86
2022-09-07T00:33:39.632Z,80
2022-09-07T01:03:53.794Z,78
2022-09-07T01:33:49.951Z,82
2022-09-07T02:34:57.852Z,79
2022-09-07T03:05:01.566Z,77
2022-09-07T03:35:02.248Z,79
2022-09-07T04:05:03.080Z,78
2022-09-07T04:35:00.083Z,78
2022-09-07T05:04:59.789Z,78
2022-09-07T05:34:59.711Z,78
2022-09-07T06:05:03.479Z,79
2022-09-07T06:35:06.366Z,81
2022-09-07T07:05:06.343Z,80
2022-09-07T07:35:07.614Z,81
2022-09-07T08:05:12.379Z,105
2022-09-07T08:35:20.358Z,95
2022-09-07T09:05:22.393Z,97
2022-09-07T09:35:23.418Z,95
2022-09-07T10:05:29.217Z,94
2022-09-07T10:35:35.795Z,92
2022-09-07T11:05:39.400Z,92
2022-09-07T11:35:46.425Z,89
2022-09-07T12:05:46.993Z,87
2022-09-07T12:35:55.649Z,90
2022-09-07T13:05:55.330Z,86
2022-09-07T13:35:55.824Z,89
2022-09-07T14:07:02.850Z,146
2022-09-07T14:36:57.943Z,107
2022-09-07T15:07:01.735Z,104
2022-09-07T15:37:03.009Z,103
2022-09-07T16:08:05.014Z,100
2022-09-07T16:37:53.752Z,100
2022-09-07T17:07:51.075Z,101
2022-09-07T17:37:45.832Z,98
2022-09-07T18:07:43.886Z,96
2022-09-07T18:38:51.191Z,242
2022-09-07T19:08:43.807Z,156
2022-09-07T19:38:42.497Z,155
2022-09-07T20:08:39.189Z,147
2022-09-07T20:38:39.438Z,145
2022-09-07T21:08:38.645Z,143
2022-09-07T21:38:40.674Z,141
2022-09-07T22:08:38.377Z,140
2022-09-07T22:38:37.597Z,140
2022-09-07T23:08:36.897Z,138
2022-09-07T23:38:32.299Z,136
